createdAt,value
2019-03-23T00:00:41.324Z,12.00
2019-03-23T00:01:41.431Z,12.20
2019-03-23T00:02:41.264Z,12.70
2019-03-23T00:03:41.311Z,13.00
2019-03-23T00:04:41.242Z,12.20
2019-03-23T00:05:41.298Z,12.90
2019-03-23T00:06:41.248Z,12.00
2019-03-23T00:07:41.316Z,12.30
2019-03-23T00:08:41.206Z,12.00
2019-03-23T00:10:42.197Z,13.00
2019-03-23T00:11:41.386Z,12.10
2019-03-23T00:12:41.148Z,11.90
2019-03-23T00:13:41.359Z,12.40
2019-03-23T00:14:41.123Z,12.20
2019-03-23T00:15:41.575Z,11.60
2019-03-23T00:16:41.179Z,12.20
2019-03-23T00:17:41.555Z,12.40
2019-03-23T00:18:41.099Z,11.70
2019-03-23T00:19:41.603Z,12.00
2019-03-23T00:20:41.065Z,12.30
2019-03-23T00:21:41.556Z,12.10
2019-03-23T00:22:41.066Z,11.20
2019-03-23T00:23:41.543Z,11.60
2019-03-23T00:24:41.050Z,12.00
2019-03-23T00:25:41.553Z,12.30
2019-03-23T00:26:40.988Z,11.50
2019-03-23T00:27:41.591Z,12.20
2019-03-23T00:28:41.001Z,11.80
2019-03-23T00:29:41.467Z,10.70
2019-03-23T00:30:40.954Z,10.30
2019-03-23T00:31:41.599Z,9.90
2019-03-23T00:32:40.957Z,10.30
2019-03-23T00:33:41.610Z,10.00
2019-03-23T00:34:40.926Z,10.30
2019-03-23T00:35:41.543Z,10.20
2019-03-23T00:36:41.910Z,10.50
2019-03-23T00:37:41.593Z,9.90
2019-03-23T00:38:40.904Z,10.40
2019-03-23T00:39:41.636Z,10.40
2019-03-23T00:40:40.853Z,11.80
2019-03-23T00:41:41.649Z,10.80
2019-03-23T00:42:40.838Z,11.70
2019-03-23T00:44:42.708Z,11.90
2019-03-23T00:46:41.895Z,12.40
2019-03-23T00:47:42.032Z,11.80
2019-03-23T00:48:40.739Z,12.50
2019-03-23T00:50:41.883Z,13.30
2019-03-23T00:52:41.879Z,13.30
2019-03-23T00:53:42.433Z,12.90
2019-03-23T00:54:40.674Z,13.00
2019-03-23T00:55:42.463Z,13.20
2019-03-23T00:56:40.675Z,13.50
2019-03-23T00:57:42.507Z,14.10
2019-03-23T00:58:40.642Z,13.80
2019-03-23T00:59:42.596Z,14.20
2019-03-23T01:00:40.611Z,13.30
2019-03-23T01:01:42.732Z,13.60
2019-03-23T01:02:41.897Z,14.10
2019-03-23T01:03:42.760Z,13.90
2019-03-23T01:04:40.580Z,14.30
2019-03-23T01:05:42.841Z,14.50
2019-03-23T01:06:40.541Z,16.00
2019-03-23T01:07:42.977Z,14.90
2019-03-23T01:08:40.549Z,16.00
2019-03-23T01:09:43.085Z,17.20
2019-03-23T01:10:40.486Z,18.40
2019-03-23T01:11:43.197Z,18.20
2019-03-23T01:12:40.469Z,18.60
2019-03-23T01:13:43.346Z,20.10
2019-03-23T01:14:40.449Z,19.50
2019-03-23T01:16:41.596Z,20.10
2019-03-23T01:18:41.566Z,21.40
2019-03-23T01:19:43.738Z,21.60
2019-03-23T01:20:49.342Z,23.00
2019-03-23T01:21:41.377Z,22.90
2019-03-23T01:23:41.523Z,22.80
2019-03-23T01:25:41.469Z,23.60
2019-03-23T01:27:41.452Z,26.10
2019-03-23T01:28:43.953Z,26.30
2019-03-23T01:29:40.317Z,27.20
2019-03-23T01:31:41.424Z,30.00
2019-03-23T01:33:41.362Z,29.50
2019-03-23T01:34:45.243Z,31.30
2019-03-23T01:35:40.205Z,30.60
2019-03-23T01:37:40.208Z,30.30
2019-03-23T01:38:42.256Z,31.00
2019-03-23T01:39:40.218Z,31.10
2019-03-23T01:40:42.380Z,31.90
2019-03-23T01:41:40.144Z,31.00
2019-03-23T01:42:40.233Z,31.70
2019-03-23T01:43:40.122Z,31.90
2019-03-23T01:44:40.176Z,32.80
2019-03-23T01:45:40.132Z,33.60
2019-03-23T01:46:40.157Z,33.80
2019-03-23T01:47:40.082Z,34.70
2019-03-23T01:48:40.170Z,35.90
2019-03-23T01:49:40.077Z,36.60
2019-03-23T01:50:40.112Z,38.60
2019-03-23T01:51:40.033Z,41.60
2019-03-23T01:52:40.105Z,42.60
2019-03-23T01:53:40.027Z,43.10
2019-03-23T01:54:40.114Z,46.10
2019-03-23T01:55:40.020Z,47.80
2019-03-23T01:56:40.028Z,49.70
2019-03-23T01:57:39.983Z,50.30
2019-03-23T01:58:40.041Z,52.90
2019-03-23T01:59:39.979Z,54.00
2019-03-23T02:00:40.090Z,56.30
2019-03-23T02:01:39.924Z,56.20
2019-03-23T02:02:39.971Z,58.80
2019-03-23T02:03:39.902Z,58.90
2019-03-23T02:04:39.977Z,59.70
2019-03-23T02:05:39.906Z,61.20
2019-03-23T02:06:40.004Z,62.00
2019-03-23T02:07:39.855Z,63.40
2019-03-23T02:08:39.907Z,65.80
2019-03-23T02:09:39.833Z,63.60
2019-03-23T02:10:41.864Z,65.70
2019-03-23T02:11:39.828Z,65.40
2019-03-23T02:12:39.845Z,65.90
2019-03-23T02:13:39.797Z,68.60
2019-03-23T02:14:39.840Z,65.90
2019-03-23T02:15:39.803Z,69.00
2019-03-23T02:16:39.887Z,69.40
2019-03-23T02:17:39.770Z,67.10
2019-03-23T02:18:39.772Z,69.20
2019-03-23T02:19:39.743Z,69.10
2019-03-23T02:20:39.815Z,69.50
2019-03-23T02:21:39.701Z,68.40
2019-03-23T02:22:39.815Z,67.90
2019-03-23T02:23:39.679Z,67.70
2019-03-23T02:24:39.712Z,67.50
2019-03-23T02:25:39.683Z,67.30
2019-03-23T02:26:39.750Z,65.40
2019-03-23T02:27:39.635Z,66.60
2019-03-23T02:28:39.737Z,65.10
2019-03-23T02:29:39.611Z,67.50
2019-03-23T02:30:39.653Z,64.80
2019-03-23T02:31:39.618Z,67.00
2019-03-23T02:33:40.685Z,69.80
2019-03-23T02:34:39.669Z,72.40
2019-03-23T02:35:39.539Z,73.90
2019-03-23T02:36:40.638Z,72.40
2019-03-23T02:37:39.519Z,74.40
2019-03-23T02:38:39.607Z,78.40
2019-03-23T02:39:39.513Z,77.90
2019-03-23T02:40:39.518Z,79.40
2019-03-23T02:41:39.502Z,77.40
2019-03-23T02:42:39.526Z,78.80
2019-03-23T02:43:39.457Z,76.40
2019-03-23T02:45:40.572Z,77.40
2019-03-23T02:46:39.451Z,79.90
2019-03-23T02:47:39.424Z,78.90
2019-03-23T02:48:39.482Z,77.90
2019-03-23T02:49:39.377Z,78.30
2019-03-23T02:50:39.479Z,77.30
2019-03-23T02:51:39.875Z,78.70
2019-03-23T02:52:39.444Z,78.80
2019-03-23T02:53:39.350Z,77.60
2019-03-23T02:54:39.408Z,80.40
2019-03-23T02:55:39.320Z,77.60
2019-03-23T02:56:39.426Z,79.10
2019-03-23T02:57:39.346Z,79.40
2019-03-23T02:58:39.344Z,78.70
2019-03-23T02:59:39.272Z,79.20
2019-03-23T03:00:39.356Z,77.20
2019-03-23T03:01:39.263Z,79.30
2019-03-23T03:02:39.389Z,78.20
2019-03-23T03:03:39.230Z,80.70
2019-03-23T03:04:39.276Z,81.90
2019-03-23T03:05:39.214Z,79.10
2019-03-23T03:06:39.311Z,78.80
2019-03-23T03:07:42.493Z,79.90
2019-03-23T03:08:39.327Z,75.80
2019-03-23T03:09:39.161Z,79.80
2019-03-23T03:10:39.211Z,80.40
2019-03-23T03:11:39.162Z,80.60
2019-03-23T03:12:39.256Z,77.60
2019-03-23T03:13:39.138Z,77.80
2019-03-23T03:14:39.231Z,78.90
2019-03-23T03:15:39.109Z,78.20
2019-03-23T03:16:39.158Z,76.90
2019-03-23T03:17:39.148Z,79.50
2019-03-23T03:18:39.182Z,79.10
2019-03-23T03:19:39.087Z,78.70
2019-03-23T03:20:39.085Z,80.60
2019-03-23T03:21:39.041Z,79.80
2019-03-23T03:22:39.231Z,79.30
2019-03-23T03:23:39.096Z,78.70
2019-03-23T03:24:39.105Z,81.30
2019-03-23T03:25:38.992Z,81.20
2019-03-23T03:26:39.007Z,80.60
2019-03-23T03:27:38.976Z,80.10
2019-03-23T03:28:39.066Z,80.10
2019-03-23T03:29:38.997Z,80.90
2019-03-23T03:30:39.061Z,77.50
2019-03-23T03:31:38.929Z,77.60
2019-03-23T03:32:38.955Z,78.40
2019-03-23T03:33:38.940Z,82.50
2019-03-23T03:34:38.974Z,81.90
2019-03-23T03:35:38.890Z,81.40
2019-03-23T03:36:38.999Z,81.60
2019-03-23T03:37:38.858Z,80.20
2019-03-23T03:38:38.924Z,81.30
2019-03-23T03:39:38.838Z,81.40
2019-03-23T03:40:38.903Z,84.00
2019-03-23T03:41:38.831Z,81.20
2019-03-23T03:42:38.917Z,82.50
2019-03-23T03:43:38.846Z,83.20
2019-03-23T03:44:38.864Z,81.90
2019-03-23T03:45:38.774Z,81.10
2019-03-23T03:46:38.852Z,88.10
2019-03-23T03:47:41.272Z,87.00
2019-03-23T03:48:38.856Z,87.90
2019-03-23T03:49:38.755Z,87.30
2019-03-23T03:50:38.797Z,88.20
2019-03-23T03:51:38.710Z,91.30
2019-03-23T03:52:38.805Z,89.80
2019-03-23T03:53:38.693Z,89.00
2019-03-23T03:54:38.725Z,89.70
2019-03-23T03:55:38.676Z,89.70
2019-03-23T03:56:38.704Z,91.90
2019-03-23T03:57:38.654Z,88.20
2019-03-23T03:58:38.724Z,94.30
2019-03-23T03:59:38.662Z,94.40
2019-03-23T04:00:38.635Z,90.70
2019-03-23T04:01:38.595Z,92.40
2019-03-23T04:02:38.661Z,88.80
2019-03-23T04:03:38.576Z,88.60
2019-03-23T04:04:38.702Z,93.10
2019-03-23T04:05:38.579Z,91.00
2019-03-23T04:06:38.582Z,90.50
2019-03-23T04:07:38.542Z,87.90
2019-03-23T04:08:38.586Z,87.70
2019-03-23T04:09:40.440Z,87.20
2019-03-23T04:10:38.641Z,90.10
2019-03-23T04:11:38.485Z,88.90
2019-03-23T04:12:38.515Z,92.50
2019-03-23T04:13:38.466Z,89.30
2019-03-23T04:14:38.570Z,92.80
2019-03-23T04:15:38.477Z,91.20
2019-03-23T04:16:38.543Z,93.40
2019-03-23T04:17:38.440Z,90.50
2019-03-23T04:18:38.448Z,90.20
2019-03-23T04:19:38.401Z,91.70
2019-03-23T04:20:38.500Z,90.90
2019-03-23T04:21:38.372Z,94.50
2019-03-23T04:22:38.488Z,92.00
2019-03-23T04:23:38.382Z,93.90
2019-03-23T04:24:38.398Z,88.50
2019-03-23T04:25:38.392Z,91.70
2019-03-23T04:26:39.470Z,94.70
2019-03-23T04:27:38.324Z,94.90
2019-03-23T04:28:38.448Z,90.50
2019-03-23T04:29:38.284Z,93.10
2019-03-23T04:30:38.456Z,94.60
2019-03-23T04:31:38.266Z,96.20
2019-03-23T04:32:38.352Z,93.40
2019-03-23T04:33:38.266Z,95.10
2019-03-23T04:34:38.257Z,94.10
2019-03-23T04:35:38.271Z,96.80
2019-03-23T04:36:38.270Z,93.00
2019-03-23T04:37:38.218Z,96.90
2019-03-23T04:38:38.292Z,97.20
2019-03-23T04:39:38.178Z,99.60
2019-03-23T04:40:38.341Z,92.60
2019-03-23T04:41:38.155Z,98.90
2019-03-23T04:42:38.211Z,95.10
2019-03-23T04:43:38.140Z,98.90
2019-03-23T04:44:38.247Z,101.30
2019-03-23T04:45:38.148Z,98.50
2019-03-23T04:46:38.132Z,100.40
2019-03-23T04:47:38.089Z,98.20
2019-03-23T04:48:38.154Z,95.30
2019-03-23T04:49:38.073Z,98.50
2019-03-23T04:50:38.198Z,98.00
2019-03-23T04:51:38.046Z,98.90
2019-03-23T04:52:38.096Z,97.70
2019-03-23T04:53:38.046Z,97.10
2019-03-23T04:54:38.994Z,98.10
2019-03-23T04:55:38.026Z,94.90
2019-03-23T04:56:38.099Z,97.90
2019-03-23T04:57:38.003Z,97.40
2019-03-23T04:58:38.027Z,95.60
2019-03-23T04:59:37.967Z,96.80
2019-03-23T05:00:38.063Z,96.20
2019-03-23T05:01:37.934Z,95.60
2019-03-23T05:02:38.051Z,96.90
2019-03-23T05:03:37.917Z,98.00
2019-03-23T05:04:37.949Z,96.30
2019-03-23T05:05:37.984Z,94.20
2019-03-23T05:06:37.961Z,92.90
2019-03-23T05:07:37.874Z,94.90
2019-03-23T05:08:37.982Z,92.60
2019-03-23T05:09:37.858Z,88.80
2019-03-23T05:10:37.922Z,85.90
2019-03-23T05:11:37.864Z,85.10
2019-03-23T05:12:37.904Z,88.70
2019-03-23T05:13:37.823Z,87.90
2019-03-23T05:14:37.922Z,87.80
2019-03-23T05:15:37.791Z,87.30
2019-03-23T05:16:37.872Z,88.00
2019-03-23T05:17:37.772Z,90.10
2019-03-23T05:18:37.863Z,89.10
2019-03-23T05:19:37.752Z,89.00
2019-03-23T05:20:37.754Z,89.70
2019-03-23T05:21:37.754Z,90.90
2019-03-23T05:22:37.772Z,92.40
2019-03-23T05:23:37.716Z,92.10
2019-03-23T05:24:37.805Z,90.10
2019-03-23T05:25:37.682Z,91.20
2019-03-23T05:26:37.846Z,92.40
2019-03-23T05:27:37.656Z,88.10
2019-03-23T05:28:37.736Z,85.80
2019-03-23T05:29:37.636Z,81.80
2019-03-23T05:30:37.720Z,92.70
2019-03-23T05:31:37.624Z,86.70
2019-03-23T05:32:37.682Z,89.50
2019-03-23T05:33:37.588Z,87.50
2019-03-23T05:34:37.650Z,90.50
2019-03-23T05:35:37.570Z,90.20
2019-03-23T05:36:37.709Z,89.80
2019-03-23T05:37:37.566Z,94.00
2019-03-23T05:38:44.259Z,95.40
2019-03-23T05:39:38.525Z,96.50
2019-03-23T05:40:37.586Z,99.50
2019-03-23T05:41:37.505Z,95.80
2019-03-23T05:42:37.703Z,94.30
2019-03-23T05:43:37.483Z,94.40
2019-03-23T05:44:37.552Z,97.00
2019-03-23T05:45:37.456Z,92.90
2019-03-23T05:46:37.524Z,92.50
2019-03-23T05:47:37.471Z,94.20
2019-03-23T05:48:37.541Z,91.70
2019-03-23T05:49:37.419Z,94.00
2019-03-23T05:50:37.458Z,93.40
2019-03-23T05:51:37.406Z,86.80
2019-03-23T05:52:37.508Z,90.30
2019-03-23T05:53:37.399Z,93.50
2019-03-23T05:54:37.481Z,90.00
2019-03-23T05:55:37.366Z,92.70
2019-03-23T05:56:37.390Z,90.60
2019-03-23T05:57:37.380Z,91.40
2019-03-23T05:58:37.437Z,91.20
2019-03-23T05:59:37.320Z,95.30
2019-03-23T06:00:37.311Z,89.70
2019-03-23T06:01:37.276Z,90.30
2019-03-23T06:02:37.381Z,91.20
2019-03-23T06:03:37.314Z,92.30
2019-03-23T06:04:37.345Z,92.20
2019-03-23T06:05:37.263Z,89.70
2019-03-23T06:06:37.256Z,88.00
2019-03-23T06:07:37.224Z,91.70
2019-03-23T06:08:37.312Z,88.10
2019-03-23T06:09:37.204Z,87.10
2019-03-23T06:10:37.331Z,88.90
2019-03-23T06:11:37.178Z,88.50
2019-03-23T06:12:37.201Z,86.00
2019-03-23T06:13:37.187Z,91.10
2019-03-23T06:14:37.218Z,89.90
2019-03-23T06:15:37.153Z,88.40
2019-03-23T06:16:37.224Z,86.60
2019-03-23T06:17:37.140Z,89.20
2019-03-23T06:18:37.169Z,88.70
2019-03-23T06:19:37.088Z,90.70
2019-03-23T06:20:37.159Z,86.00
2019-03-23T06:21:37.068Z,88.80
2019-03-23T06:22:37.185Z,85.70
2019-03-23T06:23:37.086Z,83.70
2019-03-23T06:24:37.120Z,84.20
2019-03-23T06:25:37.017Z,84.60
2019-03-23T06:26:37.097Z,88.50
2019-03-23T06:27:37.035Z,83.20
2019-03-23T06:28:37.106Z,83.50
2019-03-23T06:29:36.975Z,83.70
2019-03-23T06:30:37.067Z,82.80
2019-03-23T06:31:36.958Z,82.10
2019-03-23T06:32:37.054Z,81.20
2019-03-23T06:33:36.932Z,81.40
2019-03-23T06:34:37.092Z,80.20
2019-03-23T06:35:36.935Z,80.60
2019-03-23T06:36:36.978Z,77.80
2019-03-23T06:37:36.903Z,80.20
2019-03-23T06:38:36.977Z,80.30
2019-03-23T06:39:36.919Z,78.50
2019-03-23T06:40:36.987Z,81.50
2019-03-23T06:41:36.876Z,81.90
2019-03-23T06:42:36.897Z,79.20
2019-03-23T06:43:36.845Z,84.40
2019-03-23T06:44:36.962Z,82.10
2019-03-23T06:45:36.849Z,84.50
2019-03-23T06:46:36.831Z,81.50
2019-03-23T06:47:36.784Z,81.00
2019-03-23T06:48:36.834Z,78.60
2019-03-23T06:49:36.796Z,82.80
2019-03-23T06:50:36.883Z,70.80
2019-03-23T06:51:36.745Z,76.40
2019-03-23T06:52:36.772Z,79.70
2019-03-23T06:53:36.725Z,76.60
2019-03-23T06:54:37.117Z,78.20
2019-03-23T06:55:36.733Z,78.80
2019-03-23T06:56:36.793Z,78.20
2019-03-23T06:57:36.685Z,79.20
2019-03-23T06:58:38.599Z,79.20
2019-03-23T06:59:36.689Z,79.00
2019-03-23T07:00:36.740Z,78.20
2019-03-23T07:01:36.626Z,78.40
2019-03-23T07:02:36.741Z,76.60
2019-03-23T07:03:36.623Z,79.50
2019-03-23T07:04:36.685Z,77.80
2019-03-23T07:05:36.626Z,77.50
2019-03-23T07:07:37.691Z,73.00
2019-03-23T07:08:36.745Z,75.70
2019-03-23T07:09:36.560Z,74.30
2019-03-23T07:10:36.592Z,73.00
2019-03-23T07:11:36.553Z,78.50
2019-03-23T07:12:36.588Z,76.70
2019-03-23T07:13:36.508Z,76.20
2019-03-23T07:14:36.618Z,76.60
2019-03-23T07:15:36.503Z,75.00
2019-03-23T07:16:36.547Z,76.20
2019-03-23T07:17:36.472Z,75.70
2019-03-23T07:18:36.529Z,69.90
2019-03-23T07:19:36.439Z,73.40
2019-03-23T07:20:36.587Z,72.60
2019-03-23T07:21:36.439Z,73.20
2019-03-23T07:22:36.466Z,74.30
2019-03-23T07:23:36.418Z,73.40
2019-03-23T07:24:36.495Z,71.10
2019-03-23T07:25:36.370Z,72.60
2019-03-23T07:26:36.420Z,73.80
2019-03-23T07:27:36.348Z,70.60
2019-03-23T07:28:36.456Z,71.90
2019-03-23T07:29:36.334Z,73.80
2019-03-23T07:30:36.416Z,70.90
2019-03-23T07:31:36.342Z,71.30
2019-03-23T07:32:36.436Z,70.20
2019-03-23T07:33:36.282Z,66.70
2019-03-23T07:34:36.334Z,67.40
2019-03-23T07:35:36.263Z,69.40
2019-03-23T07:36:36.393Z,65.90
2019-03-23T07:37:36.268Z,66.60
2019-03-23T07:38:36.271Z,66.30
2019-03-23T07:39:36.232Z,67.00
2019-03-23T07:40:36.274Z,66.40
2019-03-23T07:41:36.234Z,69.90
2019-03-23T07:42:36.301Z,66.40
2019-03-23T07:43:36.192Z,68.70
2019-03-23T07:44:36.214Z,68.70
2019-03-23T07:45:36.152Z,66.50
2019-03-23T07:46:36.247Z,65.30
2019-03-23T07:47:36.138Z,65.90
2019-03-23T07:48:36.230Z,65.30
2019-03-23T07:49:36.188Z,66.70
2019-03-23T07:50:36.147Z,63.70
2019-03-23T07:51:36.145Z,64.90
2019-03-23T07:52:36.201Z,65.20
2019-03-23T07:53:36.102Z,66.10
2019-03-23T07:54:36.170Z,67.10
2019-03-23T07:55:36.043Z,65.70
2019-03-23T07:56:36.080Z,64.80
2019-03-23T07:57:36.043Z,65.40
2019-03-23T07:58:36.084Z,66.10
2019-03-23T07:59:36.016Z,66.70
2019-03-23T08:00:36.108Z,64.80
2019-03-23T08:01:35.976Z,67.60
2019-03-23T08:02:36.053Z,66.50
2019-03-23T08:03:35.984Z,62.50
2019-03-23T08:04:36.037Z,65.10
2019-03-23T08:05:35.937Z,68.10
2019-03-23T08:06:35.939Z,68.10
2019-03-23T08:07:35.933Z,66.00
2019-03-23T08:08:35.962Z,66.60
2019-03-23T08:09:37.858Z,65.40
2019-03-23T08:10:35.971Z,63.40
2019-03-23T08:11:35.890Z,64.80
2019-03-23T08:12:35.926Z,65.40
2019-03-23T08:13:35.854Z,61.10
2019-03-23T08:14:36.235Z,64.10
2019-03-23T08:15:35.818Z,64.00
2019-03-23T08:16:35.931Z,63.80
2019-03-23T08:17:35.811Z,62.50
2019-03-23T08:18:35.872Z,64.70
2019-03-23T08:19:35.786Z,64.40
2019-03-23T08:20:35.847Z,62.10
2019-03-23T08:21:35.785Z,64.90
2019-03-23T08:22:35.849Z,63.00
2019-03-23T08:23:35.766Z,62.80
2019-03-23T08:24:35.760Z,63.40
2019-03-23T08:25:35.703Z,64.30
2019-03-23T08:26:35.797Z,61.90
2019-03-23T08:27:35.683Z,62.00
2019-03-23T08:28:35.831Z,61.60
2019-03-23T08:29:35.660Z,59.60
2019-03-23T08:30:35.743Z,61.60
2019-03-23T08:31:35.646Z,61.50
2019-03-23T08:32:35.717Z,59.70
2019-03-23T08:33:35.648Z,62.30
2019-03-23T08:34:35.728Z,62.20
2019-03-23T08:35:35.599Z,60.50
2019-03-23T08:36:35.645Z,62.00
2019-03-23T08:37:35.584Z,61.80
2019-03-23T08:38:35.682Z,60.80
2019-03-23T08:39:35.578Z,61.30
2019-03-23T08:40:35.930Z,59.80
2019-03-23T08:41:35.539Z,61.30
2019-03-23T08:42:35.592Z,58.70
2019-03-23T08:43:35.546Z,58.60
2019-03-23T08:44:35.610Z,58.40
2019-03-23T08:45:35.482Z,62.00
2019-03-23T08:46:35.547Z,59.80
2019-03-23T08:47:35.470Z,59.10
2019-03-23T08:48:35.551Z,59.90
2019-03-23T08:49:35.490Z,60.50
2019-03-23T08:51:36.566Z,59.60
2019-03-23T08:52:35.445Z,59.90
2019-03-23T08:53:35.404Z,61.40
2019-03-23T08:54:35.494Z,57.80
2019-03-23T08:55:35.386Z,61.10
2019-03-23T08:56:37.410Z,60.50
2019-03-23T08:57:35.366Z,59.30
2019-03-23T08:59:36.517Z,58.30
2019-03-23T09:00:35.397Z,58.60
2019-03-23T09:01:35.307Z,59.30
2019-03-23T09:02:35.409Z,59.50
2019-03-23T09:03:35.296Z,61.10
2019-03-23T09:04:35.358Z,59.00
2019-03-23T09:05:35.255Z,58.50
2019-03-23T09:06:35.341Z,57.90
2019-03-23T09:07:35.239Z,58.80
2019-03-23T09:08:35.362Z,57.50
2019-03-23T09:10:36.207Z,57.00
2019-03-23T09:11:35.267Z,57.10
2019-03-23T09:12:35.186Z,57.90
2019-03-23T09:13:40.640Z,58.60
2019-03-23T09:14:36.201Z,56.20
2019-03-23T09:15:35.229Z,56.90
2019-03-23T09:16:35.193Z,57.20
2019-03-23T09:17:35.211Z,57.80
2019-03-23T09:18:35.116Z,57.70
2019-03-23T09:19:35.229Z,58.00
2019-03-23T09:20:35.132Z,54.90
2019-03-23T09:21:35.128Z,57.00
2019-03-23T09:22:35.081Z,56.90
2019-03-23T09:23:35.147Z,58.00
2019-03-23T09:24:35.054Z,56.50
2019-03-23T09:25:35.193Z,56.40
2019-03-23T09:26:35.052Z,55.70
2019-03-23T09:27:35.074Z,56.80
2019-03-23T09:28:35.036Z,57.70
2019-03-23T09:29:35.097Z,54.50
2019-03-23T09:30:35.025Z,55.10
2019-03-23T09:31:35.066Z,53.90
2019-03-23T09:32:34.968Z,54.70
2019-03-23T09:33:35.014Z,54.10
2019-03-23T09:34:34.947Z,54.90
2019-03-23T09:35:35.064Z,54.70
2019-03-23T09:36:34.985Z,53.90
2019-03-23T09:37:38.215Z,53.60
2019-03-23T09:38:34.929Z,54.40
2019-03-23T09:39:34.962Z,54.70
2019-03-23T09:40:34.880Z,53.10
2019-03-23T09:41:35.000Z,56.20
2019-03-23T09:42:34.882Z,54.90
2019-03-23T09:43:34.902Z,56.00
2019-03-23T09:44:34.836Z,54.70
2019-03-23T09:45:34.895Z,55.40
2019-03-23T09:46:34.842Z,55.80
2019-03-23T09:48:35.909Z,55.80
2019-03-23T09:49:34.827Z,57.00
2019-03-23T09:50:34.765Z,56.20
2019-03-23T09:51:34.857Z,53.40
2019-03-23T09:52:34.759Z,54.30
2019-03-23T09:53:34.846Z,54.60
2019-03-23T09:54:34.723Z,55.80
2019-03-23T09:55:34.754Z,54.20
2019-03-23T09:56:34.736Z,54.00
2019-03-23T09:57:34.780Z,52.80
2019-03-23T09:58:34.729Z,54.60
2019-03-23T09:59:34.784Z,54.50
2019-03-23T10:00:34.659Z,54.00
2019-03-23T10:01:34.703Z,54.30
2019-03-23T10:02:34.720Z,53.60
2019-03-23T10:03:34.708Z,53.80
2019-03-23T10:04:34.609Z,54.40
2019-03-23T10:05:34.724Z,54.60
2019-03-23T10:06:34.589Z,52.50
2019-03-23T10:07:34.661Z,54.10
2019-03-23T10:08:34.574Z,51.90
2019-03-23T10:09:34.651Z,53.80
2019-03-23T10:10:34.547Z,52.70
2019-03-23T10:11:34.568Z,54.60
2019-03-23T10:12:34.573Z,54.10
2019-03-23T10:13:34.578Z,51.80
2019-03-23T10:14:34.506Z,54.80
2019-03-23T10:15:34.587Z,54.40
2019-03-23T10:16:34.475Z,52.40
2019-03-23T10:17:34.531Z,51.90
2019-03-23T10:18:34.473Z,51.30
2019-03-23T10:19:34.517Z,51.10
2019-03-23T10:20:34.439Z,52.10
2019-03-23T10:21:34.524Z,52.30
2019-03-23T10:22:34.416Z,51.40
2019-03-23T10:23:34.481Z,53.00
2019-03-23T10:24:34.541Z,53.40
2019-03-23T10:25:34.549Z,51.10
2019-03-23T10:26:34.474Z,50.40
2019-03-23T10:27:34.461Z,49.90
2019-03-23T10:28:34.365Z,51.80
2019-03-23T10:29:34.401Z,50.10
2019-03-23T10:30:34.329Z,47.50
2019-03-23T10:31:34.392Z,48.50
2019-03-23T10:32:34.307Z,51.00
2019-03-23T10:33:34.466Z,50.20
2019-03-23T10:34:34.275Z,49.30
2019-03-23T10:35:34.426Z,49.80
2019-03-23T10:36:34.272Z,51.30
2019-03-23T10:37:34.328Z,50.10
2019-03-23T10:38:34.275Z,49.90
2019-03-23T10:39:47.201Z,51.10
2019-03-23T10:40:35.217Z,51.40
2019-03-23T10:41:34.263Z,51.90
2019-03-23T10:42:34.245Z,50.90
2019-03-23T10:43:34.300Z,51.40
2019-03-23T10:44:34.160Z,50.90
2019-03-23T10:45:43.806Z,50.80
2019-03-23T10:46:35.135Z,50.40
2019-03-23T10:47:34.319Z,49.70
2019-03-23T10:48:34.168Z,49.80
2019-03-23T10:49:34.215Z,50.30
2019-03-23T10:50:34.097Z,49.70
2019-03-23T10:51:34.118Z,51.30
2019-03-23T10:52:34.103Z,50.00
2019-03-23T10:53:34.518Z,51.70
2019-03-23T10:54:34.336Z,50.50
2019-03-23T10:55:34.459Z,52.10
2019-03-23T10:56:34.037Z,53.20
2019-03-23T10:57:34.066Z,51.90
2019-03-23T10:58:34.008Z,52.90
2019-03-23T10:59:34.122Z,53.00
2019-03-23T11:00:34.005Z,52.20
2019-03-23T11:01:34.100Z,51.60
2019-03-23T11:02:34.058Z,52.20
2019-03-23T11:03:34.112Z,52.00
2019-03-23T11:04:34.016Z,51.90
2019-03-23T11:05:34.422Z,52.70
2019-03-23T11:06:34.134Z,53.00
2019-03-23T11:07:34.033Z,52.00
2019-03-23T11:08:33.949Z,52.40
2019-03-23T11:09:34.003Z,52.20
2019-03-23T11:10:41.587Z,51.10
2019-03-23T11:11:34.863Z,54.40
2019-03-23T11:12:33.977Z,52.60
2019-03-23T11:13:33.853Z,50.70
2019-03-23T11:14:33.913Z,52.70
2019-03-23T11:15:33.841Z,51.60
2019-03-23T11:16:33.889Z,52.70
2019-03-23T11:17:33.893Z,52.80
2019-03-23T11:18:33.899Z,52.40
2019-03-23T11:19:33.814Z,52.60
2019-03-23T11:20:33.815Z,51.90
2019-03-23T11:21:33.753Z,52.10
2019-03-23T11:22:33.913Z,51.80
2019-03-23T11:23:33.802Z,51.10
2019-03-23T11:24:33.869Z,54.70
2019-03-23T11:25:33.709Z,51.20
2019-03-23T11:26:33.752Z,53.10
2019-03-23T11:27:33.688Z,51.80
2019-03-23T11:28:33.766Z,54.10
2019-03-23T11:29:33.805Z,52.20
2019-03-23T11:31:34.775Z,53.40
2019-03-23T11:32:33.725Z,51.20
2019-03-23T11:33:33.630Z,51.50
2019-03-23T11:34:33.755Z,51.00
2019-03-23T11:35:33.721Z,52.10
2019-03-23T11:37:34.823Z,50.00
2019-03-23T11:38:33.632Z,51.50
2019-03-23T11:39:33.575Z,50.90
2019-03-23T11:40:33.676Z,51.20
2019-03-23T11:41:33.587Z,49.70
2019-03-23T11:42:33.675Z,50.60
2019-03-23T11:43:33.546Z,52.20
2019-03-23T11:44:33.569Z,51.40
2019-03-23T11:45:33.544Z,53.10
2019-03-23T11:46:33.588Z,51.80
2019-03-23T11:47:33.488Z,50.10
2019-03-23T11:48:33.658Z,48.70
2019-03-23T11:49:33.476Z,47.50
2019-03-23T11:50:33.581Z,47.80
2019-03-23T11:51:33.439Z,48.40
2019-03-23T11:52:33.553Z,49.00
2019-03-23T11:53:33.426Z,46.70
2019-03-23T11:54:33.476Z,47.30
2019-03-23T11:55:33.431Z,47.20
2019-03-23T11:56:33.511Z,48.40
2019-03-23T11:57:33.394Z,48.00
2019-03-23T11:58:33.478Z,47.50
2019-03-23T11:59:33.347Z,48.50
2019-03-23T12:00:33.407Z,48.90
2019-03-23T12:01:33.318Z,49.10
2019-03-23T12:02:33.401Z,48.50
2019-03-23T12:03:33.296Z,48.30
2019-03-23T12:04:33.403Z,47.80
2019-03-23T12:05:33.275Z,47.50
2019-03-23T12:06:33.364Z,49.30
2019-03-23T12:07:33.257Z,47.80
2019-03-23T12:08:33.340Z,47.50
2019-03-23T12:09:33.235Z,46.40
2019-03-23T12:10:33.244Z,48.30
2019-03-23T12:11:33.261Z,47.00
2019-03-23T12:12:33.262Z,48.00
2019-03-23T12:13:33.187Z,48.30
2019-03-23T12:14:33.263Z,47.30
2019-03-23T12:15:33.165Z,47.30
2019-03-23T12:16:33.432Z,48.30
2019-03-23T12:17:33.152Z,48.20
2019-03-23T12:18:33.249Z,48.10
2019-03-23T12:19:33.147Z,48.90
2019-03-23T12:20:33.214Z,48.70
2019-03-23T12:21:33.191Z,49.10
2019-03-23T12:22:33.146Z,47.30
2019-03-23T12:23:33.069Z,47.90
2019-03-23T12:24:33.139Z,48.90
2019-03-23T12:25:33.061Z,48.00
2019-03-23T12:26:35.143Z,46.80
2019-03-23T12:27:33.045Z,47.30
2019-03-23T12:29:34.128Z,47.30
2019-03-23T12:30:33.380Z,46.90
2019-03-23T12:31:33.008Z,48.10
2019-03-23T12:32:33.088Z,47.10
2019-03-23T12:33:33.006Z,47.50
2019-03-23T12:34:33.619Z,46.80
2019-03-23T12:35:32.942Z,46.40
2019-03-23T12:36:33.626Z,47.00
2019-03-23T12:37:32.961Z,48.00
2019-03-23T12:38:33.773Z,46.80
2019-03-23T12:39:32.916Z,44.90
2019-03-23T12:41:34.010Z,45.40
2019-03-23T12:43:34.007Z,46.00
2019-03-23T12:45:33.975Z,46.50
2019-03-23T12:47:33.991Z,47.40
2019-03-23T12:49:33.902Z,46.70
2019-03-23T12:51:33.919Z,46.40
2019-03-23T12:52:34.297Z,45.60
2019-03-23T12:53:32.737Z,45.90
2019-03-23T12:54:34.430Z,46.60
2019-03-23T12:55:32.703Z,47.10
2019-03-23T12:56:34.479Z,47.60
2019-03-23T12:57:32.687Z,47.00
2019-03-23T12:58:34.640Z,47.40
2019-03-23T12:59:32.683Z,46.00
2019-03-23T13:00:34.610Z,45.90
2019-03-23T13:01:32.635Z,48.20
2019-03-23T13:02:34.743Z,47.00
2019-03-23T13:03:32.643Z,46.00
2019-03-23T13:04:34.785Z,46.90
2019-03-23T13:05:32.607Z,47.60
2019-03-23T13:06:34.861Z,45.40
2019-03-23T13:07:32.568Z,46.40
2019-03-23T13:08:35.005Z,47.50
2019-03-23T13:09:32.541Z,47.20
2019-03-23T13:10:34.997Z,48.30
2019-03-23T13:11:35.525Z,47.80
2019-03-23T13:12:35.008Z,46.30
2019-03-23T13:13:32.497Z,47.50
2019-03-23T13:14:35.058Z,46.40
2019-03-23T13:15:32.519Z,47.80
2019-03-23T13:16:34.955Z,47.20
2019-03-23T13:17:32.477Z,46.00
2019-03-23T13:18:34.958Z,46.30
2019-03-23T13:19:32.448Z,45.50
2019-03-23T13:21:32.429Z,45.50
2019-03-23T13:22:34.872Z,47.50